sensor_id;sensor_type;location;lat;lon;timestamp;P1;durP1;ratioP1;P2;durP2;ratioP2
55368;SDS011;41247;49.736;8.752;2023-05-10T00:01:28;5.10;;;4.13;;
55368;SDS011;41247;49.736;8.752;2023-05-10T00:05:08;5.15;;;4.60;;
55368;SDS011;41247;49.736;8.752;2023-05-10T00:08:49;5.93;;;4.63;;
55368;SDS011;41247;49.736;8.752;2023-05-10T00:12:29;11.40;;;5.72;;
55368;SDS011;41247;49.736;8.752;2023-05-10T00:16:10;8.55;;;5.30;;
55368;SDS011;41247;49.736;8.752;2023-05-10T00:19:50;6.10;;;5.10;;
55368;SDS011;41247;49.736;8.752;2023-05-10T00:23:31;12.05;;;6.70;;
55368;SDS011;41247;49.736;8.752;2023-05-10T00:27:12;6.38;;;4.95;;
55368;SDS011;41247;49.736;8.752;2023-05-10T00:30:52;7.60;;;5.72;;
55368;SDS011;41247;49.736;8.752;2023-05-10T00:34:33;7.72;;;5.18;;
55368;SDS011;41247;49.736;8.752;2023-05-10T00:38:14;7.68;;;6.03;;
55368;SDS011;41247;49.736;8.752;2023-05-10T00:41:54;5.97;;;4.30;;
55368;SDS011;41247;49.736;8.752;2023-05-10T00:45:35;7.22;;;4.55;;
55368;SDS011;41247;49.736;8.752;2023-05-10T00:49:16;7.68;;;5.78;;
55368;SDS011;41247;49.736;8.752;2023-05-10T00:52:57;11.25;;;7.53;;
55368;SDS011;41247;49.736;8.752;2023-05-10T00:56:40;13.25;;;7.50;;
55368;SDS011;41247;49.736;8.752;2023-05-10T01:00:21;13.50;;;8.20;;
55368;SDS011;41247;49.736;8.752;2023-05-10T01:04:01;15.88;;;8.55;;
55368;SDS011;41247;49.736;8.752;2023-05-10T01:07:42;13.95;;;8.27;;
55368;SDS011;41247;49.736;8.752;2023-05-10T01:11:23;16.67;;;8.32;;
55368;SDS011;41247;49.736;8.752;2023-05-10T01:15:05;15.45;;;8.18;;
55368;SDS011;41247;49.736;8.752;2023-05-10T01:18:47;14.43;;;8.55;;
55368;SDS011;41247;49.736;8.752;2023-05-10T01:22:57;10.68;;;7.90;;
55368;SDS011;41247;49.736;8.752;2023-05-10T01:27:20;11.02;;;8.02;;
55368;SDS011;41247;49.736;8.752;2023-05-10T01:35:59;15.98;;;8.05;;
55368;SDS011;41247;49.736;8.752;2023-05-10T01:39:47;17.23;;;9.13;;
55368;SDS011;41247;49.736;8.752;2023-05-10T01:48:05;14.48;;;9.57;;
55368;SDS011;41247;49.736;8.752;2023-05-10T01:51:50;14.88;;;10.18;;
55368;SDS011;41247;49.736;8.752;2023-05-10T01:55:35;17.48;;;11.13;;
55368;SDS011;41247;49.736;8.752;2023-05-10T01:59:28;19.50;;;9.93;;
55368;SDS011;41247;49.736;8.752;2023-05-10T02:03:13;16.95;;;10.73;;
55368;SDS011;41247;49.736;8.752;2023-05-10T02:06:56;17.88;;;10.88;;
55368;SDS011;41247;49.736;8.752;2023-05-10T02:10:37;19.90;;;10.57;;
55368;SDS011;41247;49.736;8.752;2023-05-10T02:14:19;24.25;;;13.43;;
55368;SDS011;41247;49.736;8.752;2023-05-10T02:18:02;28.10;;;13.18;;
55368;SDS011;41247;49.736;8.752;2023-05-10T02:21:44;29.40;;;13.75;;
55368;SDS011;41247;49.736;8.752;2023-05-10T02:25:26;23.13;;;12.88;;
55368;SDS011;41247;49.736;8.752;2023-05-10T02:29:08;20.52;;;13.25;;
55368;SDS011;41247;49.736;8.752;2023-05-10T02:32:51;23.23;;;14.10;;
55368;SDS011;41247;49.736;8.752;2023-05-10T02:36:32;22.65;;;12.43;;
55368;SDS011;41247;49.736;8.752;2023-05-10T02:40:13;23.48;;;13.35;;
55368;SDS011;41247;49.736;8.752;2023-05-10T02:43:57;16.92;;;11.55;;
55368;SDS011;41247;49.736;8.752;2023-05-10T02:47:41;26.98;;;13.18;;
55368;SDS011;41247;49.736;8.752;2023-05-10T02:51:23;19.38;;;11.43;;
55368;SDS011;41247;49.736;8.752;2023-05-10T02:55:09;18.52;;;11.82;;
55368;SDS011;41247;49.736;8.752;2023-05-10T02:58:52;19.63;;;12.50;;
55368;SDS011;41247;49.736;8.752;2023-05-10T03:02:33;18.75;;;11.40;;
55368;SDS011;41247;49.736;8.752;2023-05-10T03:06:14;16.92;;;11.18;;
55368;SDS011;41247;49.736;8.752;2023-05-10T03:09:54;18.42;;;10.77;;
55368;SDS011;41247;49.736;8.752;2023-05-10T03:13:37;18.00;;;10.75;;
55368;SDS011;41247;49.736;8.752;2023-05-10T03:17:47;19.42;;;11.18;;
55368;SDS011;41247;49.736;8.752;2023-05-10T03:21:38;14.05;;;10.15;;
55368;SDS011;41247;49.736;8.752;2023-05-10T03:25:24;17.42;;;11.35;;
55368;SDS011;41247;49.736;8.752;2023-05-10T03:29:05;16.38;;;10.98;;
55368;SDS011;41247;49.736;8.752;2023-05-10T03:32:47;17.58;;;11.68;;
55368;SDS011;41247;49.736;8.752;2023-05-10T03:36:27;18.90;;;12.00;;
55368;SDS011;41247;49.736;8.752;2023-05-10T03:40:09;15.95;;;11.15;;
55368;SDS011;41247;49.736;8.752;2023-05-10T03:43:50;17.88;;;11.98;;
55368;SDS011;41247;49.736;8.752;2023-05-10T03:47:31;22.95;;;12.38;;
55368;SDS011;41247;49.736;8.752;2023-05-10T03:51:12;20.92;;;12.35;;
55368;SDS011;41247;49.736;8.752;2023-05-10T03:54:52;23.15;;;12.40;;
55368;SDS011;41247;49.736;8.752;2023-05-10T03:58:33;22.25;;;13.70;;
55368;SDS011;41247;49.736;8.752;2023-05-10T04:02:13;22.00;;;14.05;;
55368;SDS011;41247;49.736;8.752;2023-05-10T04:06:00;25.75;;;14.63;;
55368;SDS011;41247;49.736;8.752;2023-05-10T04:09:41;30.35;;;15.48;;
55368;SDS011;41247;49.736;8.752;2023-05-10T04:13:22;25.92;;;14.95;;
55368;SDS011;41247;49.736;8.752;2023-05-10T04:17:02;23.27;;;14.88;;
55368;SDS011;41247;49.736;8.752;2023-05-10T04:20:43;25.35;;;14.68;;
55368;SDS011;41247;49.736;8.752;2023-05-10T04:24:24;28.77;;;15.00;;
55368;SDS011;41247;49.736;8.752;2023-05-10T04:28:04;20.60;;;14.57;;
55368;SDS011;41247;49.736;8.752;2023-05-10T04:31:45;27.02;;;14.93;;
55368;SDS011;41247;49.736;8.752;2023-05-10T04:35:26;25.15;;;14.90;;
55368;SDS011;41247;49.736;8.752;2023-05-10T04:39:06;22.15;;;14.10;;
55368;SDS011;41247;49.736;8.752;2023-05-10T04:42:47;21.23;;;13.43;;
55368;SDS011;41247;49.736;8.752;2023-05-10T04:46:28;20.60;;;12.43;;
55368;SDS011;41247;49.736;8.752;2023-05-10T04:50:08;21.63;;;12.40;;
55368;SDS011;41247;49.736;8.752;2023-05-10T04:53:49;20.52;;;11.52;;
55368;SDS011;41247;49.736;8.752;2023-05-10T04:57:30;18.33;;;11.23;;
55368;SDS011;41247;49.736;8.752;2023-05-10T05:01:10;19.60;;;10.82;;
55368;SDS011;41247;49.736;8.752;2023-05-10T05:04:51;17.88;;;10.80;;
55368;SDS011;41247;49.736;8.752;2023-05-10T05:08:31;19.65;;;10.77;;
55368;SDS011;41247;49.736;8.752;2023-05-10T05:12:12;16.55;;;10.40;;
55368;SDS011;41247;49.736;8.752;2023-05-10T05:15:53;21.33;;;11.48;;
55368;SDS011;41247;49.736;8.752;2023-05-10T05:19:33;17.30;;;11.20;;
55368;SDS011;41247;49.736;8.752;2023-05-10T05:23:14;18.10;;;11.20;;
55368;SDS011;41247;49.736;8.752;2023-05-10T05:26:55;21.80;;;11.20;;
55368;SDS011;41247;49.736;8.752;2023-05-10T05:30:35;18.45;;;11.15;;
55368;SDS011;41247;49.736;8.752;2023-05-10T05:34:16;24.88;;;12.25;;
55368;SDS011;41247;49.736;8.752;2023-05-10T05:37:56;19.52;;;11.68;;
55368;SDS011;41247;49.736;8.752;2023-05-10T05:41:37;18.38;;;11.70;;
55368;SDS011;41247;49.736;8.752;2023-05-10T05:45:17;21.05;;;11.65;;
55368;SDS011;41247;49.736;8.752;2023-05-10T05:48:58;20.67;;;12.43;;
55368;SDS011;41247;49.736;8.752;2023-05-10T05:52:39;19.52;;;12.27;;
55368;SDS011;41247;49.736;8.752;2023-05-10T05:56:19;19.10;;;11.55;;
55368;SDS011;41247;49.736;8.752;2023-05-10T06:00:00;17.15;;;11.50;;
55368;SDS011;41247;49.736;8.752;2023-05-10T06:03:41;16.45;;;10.80;;
55368;SDS011;41247;49.736;8.752;2023-05-10T06:07:21;19.02;;;11.45;;
55368;SDS011;41247;49.736;8.752;2023-05-10T06:11:02;16.50;;;9.68;;
55368;SDS011;41247;49.736;8.752;2023-05-10T06:14:43;12.60;;;9.82;;
55368;SDS011;41247;49.736;8.752;2023-05-10T06:18:23;14.57;;;9.85;;
55368;SDS011;41247;49.736;8.752;2023-05-10T06:22:04;18.42;;;9.85;;
55368;SDS011;41247;49.736;8.752;2023-05-10T06:25:45;15.75;;;9.95;;
55368;SDS011;41247;49.736;8.752;2023-05-10T06:29:25;20.70;;;10.13;;
55368;SDS011;41247;49.736;8.752;2023-05-10T06:33:06;15.65;;;10.45;;
55368;SDS011;41247;49.736;8.752;2023-05-10T06:36:47;15.85;;;10.63;;
55368;SDS011;41247;49.736;8.752;2023-05-10T06:40:27;14.55;;;10.95;;
55368;SDS011;41247;49.736;8.752;2023-05-10T06:44:08;18.17;;;10.43;;
55368;SDS011;41247;49.736;8.752;2023-05-10T06:47:49;16.45;;;10.68;;
55368;SDS011;41247;49.736;8.752;2023-05-10T06:51:29;18.02;;;10.27;;
55368;SDS011;41247;49.736;8.752;2023-05-10T06:55:10;18.50;;;10.05;;
55368;SDS011;41247;49.736;8.752;2023-05-10T06:58:50;14.32;;;10.32;;
55368;SDS011;41247;49.736;8.752;2023-05-10T07:02:31;12.10;;;10.13;;
55368;SDS011;41247;49.736;8.752;2023-05-10T07:06:12;13.77;;;9.57;;
55368;SDS011;41247;49.736;8.752;2023-05-10T07:09:52;14.00;;;9.25;;
55368;SDS011;41247;49.736;8.752;2023-05-10T07:13:33;12.52;;;8.50;;
55368;SDS011;41247;49.736;8.752;2023-05-10T07:17:14;15.10;;;8.77;;
55368;SDS011;41247;49.736;8.752;2023-05-10T07:20:55;10.77;;;8.88;;
55368;SDS011;41247;49.736;8.752;2023-05-10T07:24:37;12.13;;;8.60;;
55368;SDS011;41247;49.736;8.752;2023-05-10T07:28:17;9.82;;;7.53;;
55368;SDS011;41247;49.736;8.752;2023-05-10T07:31:58;11.25;;;7.00;;
55368;SDS011;41247;49.736;8.752;2023-05-10T07:35:39;11.60;;;6.78;;
55368;SDS011;41247;49.736;8.752;2023-05-10T07:39:20;7.25;;;6.47;;
55368;SDS011;41247;49.736;8.752;2023-05-10T07:43:00;8.32;;;6.35;;
55368;SDS011;41247;49.736;8.752;2023-05-10T07:46:41;7.45;;;6.18;;
55368;SDS011;41247;49.736;8.752;2023-05-10T07:50:21;7.72;;;5.65;;
55368;SDS011;41247;49.736;8.752;2023-05-10T07:54:02;12.15;;;5.95;;
55368;SDS011;41247;49.736;8.752;2023-05-10T07:57:43;7.85;;;5.70;;
55368;SDS011;41247;49.736;8.752;2023-05-10T08:01:23;9.48;;;6.00;;
55368;SDS011;41247;49.736;8.752;2023-05-10T08:05:04;10.90;;;6.25;;
55368;SDS011;41247;49.736;8.752;2023-05-10T08:08:46;8.60;;;5.70;;
55368;SDS011;41247;49.736;8.752;2023-05-10T08:12:27;8.25;;;6.10;;
55368;SDS011;41247;49.736;8.752;2023-05-10T08:16:08;8.60;;;7.65;;
55368;SDS011;41247;49.736;8.752;2023-05-10T08:19:48;8.35;;;7.47;;
55368;SDS011;41247;49.736;8.752;2023-05-10T08:23:29;10.20;;;6.55;;
55368;SDS011;41247;49.736;8.752;2023-05-10T08:27:10;7.65;;;6.45;;
55368;SDS011;41247;49.736;8.752;2023-05-10T08:30:50;9.63;;;6.00;;
55368;SDS011;41247;49.736;8.752;2023-05-10T08:34:31;10.60;;;7.10;;
55368;SDS011;41247;49.736;8.752;2023-05-10T08:38:12;14.30;;;7.05;;
55368;SDS011;41247;49.736;8.752;2023-05-10T08:41:53;9.32;;;7.05;;
55368;SDS011;41247;49.736;8.752;2023-05-10T08:45:44;8.38;;;6.65;;
55368;SDS011;41247;49.736;8.752;2023-05-10T08:49:25;8.73;;;6.53;;
55368;SDS011;41247;49.736;8.752;2023-05-10T08:53:11;6.10;;;5.45;;
55368;SDS011;41247;49.736;8.752;2023-05-10T08:56:53;7.18;;;4.93;;
55368;SDS011;41247;49.736;8.752;2023-05-10T09:00:34;10.40;;;4.78;;
55368;SDS011;41247;49.736;8.752;2023-05-10T09:04:15;5.80;;;4.10;;
55368;SDS011;41247;49.736;8.752;2023-05-10T09:07:56;6.30;;;3.20;;
55368;SDS011;41247;49.736;8.752;2023-05-10T09:11:36;4.38;;;2.80;;
55368;SDS011;41247;49.736;8.752;2023-05-10T09:15:17;7.13;;;2.30;;
55368;SDS011;41247;49.736;8.752;2023-05-10T09:22:42;7.20;;;1.90;;
55368;SDS011;41247;49.736;8.752;2023-05-10T09:26:23;2.08;;;1.35;;
55368;SDS011;41247;49.736;8.752;2023-05-10T09:30:04;2.72;;;1.20;;
55368;SDS011;41247;49.736;8.752;2023-05-10T09:33:47;3.05;;;1.00;;
55368;SDS011;41247;49.736;8.752;2023-05-10T09:37:29;2.03;;;1.00;;
55368;SDS011;41247;49.736;8.752;2023-05-10T09:41:16;4.43;;;1.00;;
55368;SDS011;41247;49.736;8.752;2023-05-10T09:48:46;1.33;;;0.80;;
55368;SDS011;41247;49.736;8.752;2023-05-10T09:52:28;4.80;;;1.00;;
55368;SDS011;41247;49.736;8.752;2023-05-10T09:56:10;1.50;;;1.10;;
55368;SDS011;41247;49.736;8.752;2023-05-10T09:59:50;4.60;;;0.80;;
55368;SDS011;41247;49.736;8.752;2023-05-10T10:03:31;2.78;;;0.80;;
55368;SDS011;41247;49.736;8.752;2023-05-10T10:07:12;2.97;;;0.90;;
55368;SDS011;41247;49.736;8.752;2023-05-10T10:10:52;2.78;;;1.10;;
55368;SDS011;41247;49.736;8.752;2023-05-10T10:14:33;2.67;;;1.13;;
55368;SDS011;41247;49.736;8.752;2023-05-10T10:18:15;1.00;;;0.85;;
55368;SDS011;41247;49.736;8.752;2023-05-10T10:21:56;2.67;;;0.90;;
55368;SDS011;41247;49.736;8.752;2023-05-10T10:25:37;1.95;;;1.10;;
55368;SDS011;41247;49.736;8.752;2023-05-10T10:29:23;8.98;;;1.63;;
55368;SDS011;41247;49.736;8.752;2023-05-10T10:37:45;2.45;;;1.30;;
55368;SDS011;41247;49.736;8.752;2023-05-10T10:41:29;3.28;;;1.33;;
55368;SDS011;41247;49.736;8.752;2023-05-10T10:45:15;3.00;;;1.38;;
55368;SDS011;41247;49.736;8.752;2023-05-10T10:49:08;4.07;;;1.35;;
55368;SDS011;41247;49.736;8.752;2023-05-10T10:52:50;3.83;;;1.30;;
55368;SDS011;41247;49.736;8.752;2023-05-10T10:56:31;3.97;;;1.40;;
55368;SDS011;41247;49.736;8.752;2023-05-10T11:00:27;3.35;;;1.30;;
55368;SDS011;41247;49.736;8.752;2023-05-10T11:04:16;2.58;;;1.30;;
55368;SDS011;41247;49.736;8.752;2023-05-10T11:07:58;1.77;;;1.35;;
55368;SDS011;41247;49.736;8.752;2023-05-10T11:11:53;4.90;;;1.20;;
55368;SDS011;41247;49.736;8.752;2023-05-10T11:15:35;5.38;;;1.58;;
55368;SDS011;41247;49.736;8.752;2023-05-10T11:19:20;3.38;;;1.25;;
55368;SDS011;41247;49.736;8.752;2023-05-10T11:23:13;4.10;;;1.40;;
55368;SDS011;41247;49.736;8.752;2023-05-10T11:26:54;1.75;;;1.00;;
55368;SDS011;41247;49.736;8.752;2023-05-10T11:30:35;2.40;;;1.08;;
55368;SDS011;41247;49.736;8.752;2023-05-10T11:34:28;2.67;;;0.80;;
55368;SDS011;41247;49.736;8.752;2023-05-10T11:38:11;1.00;;;0.70;;
55368;SDS011;41247;49.736;8.752;2023-05-10T11:41:53;2.33;;;0.75;;
55368;SDS011;41247;49.736;8.752;2023-05-10T11:45:34;0.85;;;0.50;;
55368;SDS011;41247;49.736;8.752;2023-05-10T11:49:15;1.02;;;0.55;;
55368;SDS011;41247;49.736;8.752;2023-05-10T11:52:56;2.95;;;0.68;;
55368;SDS011;41247;49.736;8.752;2023-05-10T11:56:38;1.38;;;0.75;;
55368;SDS011;41247;49.736;8.752;2023-05-10T12:00:20;1.45;;;0.80;;
55368;SDS011;41247;49.736;8.752;2023-05-10T12:04:01;1.10;;;0.88;;
55368;SDS011;41247;49.736;8.752;2023-05-10T12:07:42;1.25;;;0.85;;
55368;SDS011;41247;49.736;8.752;2023-05-10T12:11:24;1.58;;;0.60;;
55368;SDS011;41247;49.736;8.752;2023-05-10T12:15:06;6.05;;;0.90;;
55368;SDS011;41247;49.736;8.752;2023-05-10T12:19:04;2.00;;;0.80;;
55368;SDS011;41247;49.736;8.752;2023-05-10T12:22:52;2.60;;;0.85;;
55368;SDS011;41247;49.736;8.752;2023-05-10T12:26:35;2.15;;;0.65;;
55368;SDS011;41247;49.736;8.752;2023-05-10T12:30:20;1.73;;;0.70;;
55368;SDS011;41247;49.736;8.752;2023-05-10T12:34:04;1.00;;;0.47;;
55368;SDS011;41247;49.736;8.752;2023-05-10T12:37:47;3.77;;;0.50;;
55368;SDS011;41247;49.736;8.752;2023-05-10T12:41:28;6.05;;;0.85;;
55368;SDS011;41247;49.736;8.752;2023-05-10T12:45:09;0.70;;;0.55;;
55368;SDS011;41247;49.736;8.752;2023-05-10T12:48:50;2.67;;;0.52;;
55368;SDS011;41247;49.736;8.752;2023-05-10T12:52:31;2.42;;;0.70;;
55368;SDS011;41247;49.736;8.752;2023-05-10T12:56:12;2.72;;;0.80;;
55368;SDS011;41247;49.736;8.752;2023-05-10T12:59:52;3.97;;;0.80;;
55368;SDS011;41247;49.736;8.752;2023-05-10T13:03:33;1.70;;;0.70;;
55368;SDS011;41247;49.736;8.752;2023-05-10T13:07:14;2.92;;;0.98;;
55368;SDS011;41247;49.736;8.752;2023-05-10T13:10:55;4.90;;;0.75;;
55368;SDS011;41247;49.736;8.752;2023-05-10T13:14:35;3.85;;;0.90;;
55368;SDS011;41247;49.736;8.752;2023-05-10T13:18:16;3.55;;;0.70;;
55368;SDS011;41247;49.736;8.752;2023-05-10T13:21:56;2.58;;;0.90;;
55368;SDS011;41247;49.736;8.752;2023-05-10T13:25:37;3.08;;;0.75;;
55368;SDS011;41247;49.736;8.752;2023-05-10T13:29:18;4.22;;;1.13;;
55368;SDS011;41247;49.736;8.752;2023-05-10T13:32:58;4.13;;;0.80;;
55368;SDS011;41247;49.736;8.752;2023-05-10T13:36:39;5.03;;;0.95;;
55368;SDS011;41247;49.736;8.752;2023-05-10T13:40:19;7.35;;;0.90;;
55368;SDS011;41247;49.736;8.752;2023-05-10T13:44:00;3.45;;;0.98;;
55368;SDS011;41247;49.736;8.752;2023-05-10T13:47:41;5.63;;;0.85;;
55368;SDS011;41247;49.736;8.752;2023-05-10T13:51:21;9.43;;;1.08;;
55368;SDS011;41247;49.736;8.752;2023-05-10T13:55:02;5.10;;;1.02;;
55368;SDS011;41247;49.736;8.752;2023-05-10T13:58:43;4.78;;;1.05;;
55368;SDS011;41247;49.736;8.752;2023-05-10T14:02:24;7.95;;;0.88;;
55368;SDS011;41247;49.736;8.752;2023-05-10T14:06:05;3.80;;;0.70;;
55368;SDS011;41247;49.736;8.752;2023-05-10T14:09:45;4.03;;;0.80;;
55368;SDS011;41247;49.736;8.752;2023-05-10T14:13:26;3.70;;;1.00;;
55368;SDS011;41247;49.736;8.752;2023-05-10T14:17:06;5.75;;;0.80;;
55368;SDS011;41247;49.736;8.752;2023-05-10T14:20:47;3.38;;;0.80;;
55368;SDS011;41247;49.736;8.752;2023-05-10T14:24:28;5.35;;;0.93;;
55368;SDS011;41247;49.736;8.752;2023-05-10T14:28:09;3.88;;;0.82;;
55368;SDS011;41247;49.736;8.752;2023-05-10T14:31:49;3.42;;;0.90;;
55368;SDS011;41247;49.736;8.752;2023-05-10T14:35:30;5.28;;;0.73;;
55368;SDS011;41247;49.736;8.752;2023-05-10T14:39:11;3.53;;;1.25;;
55368;SDS011;41247;49.736;8.752;2023-05-10T14:42:52;4.50;;;1.35;;
55368;SDS011;41247;49.736;8.752;2023-05-10T14:46:37;6.38;;;1.15;;
55368;SDS011;41247;49.736;8.752;2023-05-10T14:50:18;5.88;;;0.90;;
55368;SDS011;41247;49.736;8.752;2023-05-10T14:53:59;3.42;;;1.08;;
55368;SDS011;41247;49.736;8.752;2023-05-10T14:57:39;3.53;;;0.70;;
55368;SDS011;41247;49.736;8.752;2023-05-10T15:01:20;3.45;;;0.80;;
55368;SDS011;41247;49.736;8.752;2023-05-10T15:05:04;5.50;;;1.08;;
55368;SDS011;41247;49.736;8.752;2023-05-10T15:08:46;7.10;;;0.80;;
55368;SDS011;41247;49.736;8.752;2023-05-10T15:12:27;3.42;;;0.70;;
55368;SDS011;41247;49.736;8.752;2023-05-10T15:16:08;2.08;;;0.85;;
55368;SDS011;41247;49.736;8.752;2023-05-10T15:19:48;2.78;;;0.77;;
55368;SDS011;41247;49.736;8.752;2023-05-10T15:23:29;2.53;;;0.80;;
55368;SDS011;41247;49.736;8.752;2023-05-10T15:27:10;2.55;;;0.90;;
55368;SDS011;41247;49.736;8.752;2023-05-10T15:30:50;3.40;;;0.70;;
55368;SDS011;41247;49.736;8.752;2023-05-10T15:34:31;1.15;;;0.50;;
55368;SDS011;41247;49.736;8.752;2023-05-10T15:38:12;1.83;;;0.50;;
55368;SDS011;41247;49.736;8.752;2023-05-10T15:41:52;2.95;;;0.50;;
55368;SDS011;41247;49.736;8.752;2023-05-10T15:45:33;1.38;;;0.60;;
55368;SDS011;41247;49.736;8.752;2023-05-10T15:49:14;2.50;;;0.60;;
55368;SDS011;41247;49.736;8.752;2023-05-10T15:52:55;5.00;;;0.60;;
55368;SDS011;41247;49.736;8.752;2023-05-10T15:56:35;3.95;;;0.60;;
55368;SDS011;41247;49.736;8.752;2023-05-10T16:00:16;2.80;;;0.88;;
55368;SDS011;41247;49.736;8.752;2023-05-10T16:03:57;3.67;;;0.80;;
55368;SDS011;41247;49.736;8.752;2023-05-10T16:07:37;2.97;;;0.70;;
55368;SDS011;41247;49.736;8.752;2023-05-10T16:11:18;4.68;;;0.50;;
55368;SDS011;41247;49.736;8.752;2023-05-10T16:14:59;2.22;;;0.50;;
55368;SDS011;41247;49.736;8.752;2023-05-10T16:18:40;0.77;;;0.50;;
55368;SDS011;41247;49.736;8.752;2023-05-10T16:22:20;1.63;;;0.50;;
55368;SDS011;41247;49.736;8.752;2023-05-10T16:26:01;2.17;;;0.45;;
55368;SDS011;41247;49.736;8.752;2023-05-10T16:29:41;5.38;;;0.60;;
55368;SDS011;41247;49.736;8.752;2023-05-10T16:33:22;5.07;;;0.63;;
55368;SDS011;41247;49.736;8.752;2023-05-10T16:37:03;4.13;;;0.60;;
55368;SDS011;41247;49.736;8.752;2023-05-10T16:40:43;1.88;;;0.55;;
55368;SDS011;41247;49.736;8.752;2023-05-10T16:44:24;3.17;;;0.40;;
55368;SDS011;41247;49.736;8.752;2023-05-10T16:48:04;3.05;;;0.60;;
55368;SDS011;41247;49.736;8.752;2023-05-10T16:51:45;1.73;;;0.50;;
55368;SDS011;41247;49.736;8.752;2023-05-10T16:55:26;3.50;;;0.50;;
55368;SDS011;41247;49.736;8.752;2023-05-10T16:59:06;8.27;;;0.82;;
55368;SDS011;41247;49.736;8.752;2023-05-10T17:02:47;2.22;;;0.60;;
55368;SDS011;41247;49.736;8.752;2023-05-10T17:06:28;1.38;;;0.40;;
55368;SDS011;41247;49.736;8.752;2023-05-10T17:10:08;3.08;;;0.47;;
55368;SDS011;41247;49.736;8.752;2023-05-10T17:13:49;4.00;;;0.43;;
55368;SDS011;41247;49.736;8.752;2023-05-10T17:17:31;7.90;;;0.57;;
55368;SDS011;41247;49.736;8.752;2023-05-10T17:21:11;3.80;;;0.60;;
55368;SDS011;41247;49.736;8.752;2023-05-10T17:24:52;1.80;;;0.45;;
55368;SDS011;41247;49.736;8.752;2023-05-10T17:28:33;3.80;;;0.40;;
55368;SDS011;41247;49.736;8.752;2023-05-10T17:32:13;4.10;;;0.57;;
55368;SDS011;41247;49.736;8.752;2023-05-10T17:35:54;3.83;;;0.50;;
55368;SDS011;41247;49.736;8.752;2023-05-10T17:39:35;0.90;;;0.45;;
55368;SDS011;41247;49.736;8.752;2023-05-10T17:43:15;4.10;;;0.50;;
55368;SDS011;41247;49.736;8.752;2023-05-10T17:46:56;2.65;;;0.60;;
55368;SDS011;41247;49.736;8.752;2023-05-10T17:50:36;1.92;;;0.40;;
55368;SDS011;41247;49.736;8.752;2023-05-10T17:54:20;3.38;;;0.65;;
55368;SDS011;41247;49.736;8.752;2023-05-10T17:58:01;0.77;;;0.30;;
55368;SDS011;41247;49.736;8.752;2023-05-10T18:01:42;1.88;;;0.40;;
55368;SDS011;41247;49.736;8.752;2023-05-10T18:05:22;2.00;;;0.60;;
55368;SDS011;41247;49.736;8.752;2023-05-10T18:09:03;3.05;;;0.60;;
55368;SDS011;41247;49.736;8.752;2023-05-10T18:12:44;1.40;;;0.60;;
55368;SDS011;41247;49.736;8.752;2023-05-10T18:16:24;4.53;;;0.52;;
55368;SDS011;41247;49.736;8.752;2023-05-10T18:20:05;3.13;;;0.50;;
55368;SDS011;41247;49.736;8.752;2023-05-10T18:23:46;1.20;;;0.45;;
55368;SDS011;41247;49.736;8.752;2023-05-10T18:27:27;0.85;;;0.60;;
55368;SDS011;41247;49.736;8.752;2023-05-10T18:31:07;2.72;;;1.25;;
55368;SDS011;41247;49.736;8.752;2023-05-10T18:34:48;5.03;;;1.63;;
55368;SDS011;41247;49.736;8.752;2023-05-10T18:38:29;3.75;;;0.70;;
55368;SDS011;41247;49.736;8.752;2023-05-10T18:42:09;3.10;;;0.60;;
55368;SDS011;41247;49.736;8.752;2023-05-10T18:45:50;2.78;;;0.50;;
55368;SDS011;41247;49.736;8.752;2023-05-10T18:49:30;3.75;;;0.60;;
55368;SDS011;41247;49.736;8.752;2023-05-10T18:53:11;0.50;;;0.40;;
55368;SDS011;41247;49.736;8.752;2023-05-10T18:56:51;1.00;;;0.47;;
55368;SDS011;41247;49.736;8.752;2023-05-10T19:00:32;3.08;;;0.60;;
55368;SDS011;41247;49.736;8.752;2023-05-10T19:04:13;2.90;;;0.70;;
55368;SDS011;41247;49.736;8.752;2023-05-10T19:07:53;9.15;;;0.77;;
55368;SDS011;41247;49.736;8.752;2023-05-10T19:11:35;1.13;;;0.80;;
55368;SDS011;41247;49.736;8.752;2023-05-10T19:15:15;4.95;;;0.60;;
55368;SDS011;41247;49.736;8.752;2023-05-10T19:18:56;3.63;;;0.80;;
55368;SDS011;41247;49.736;8.752;2023-05-10T19:22:37;5.13;;;0.65;;
55368;SDS011;41247;49.736;8.752;2023-05-10T19:26:17;6.75;;;1.45;;
55368;SDS011;41247;49.736;8.752;2023-05-10T19:29:58;3.50;;;0.80;;
55368;SDS011;41247;49.736;8.752;2023-05-10T19:33:39;5.88;;;0.77;;
55368;SDS011;41247;49.736;8.752;2023-05-10T19:37:19;5.97;;;0.98;;
55368;SDS011;41247;49.736;8.752;2023-05-10T19:41:00;2.67;;;0.77;;
55368;SDS011;41247;49.736;8.752;2023-05-10T19:44:40;11.85;;;1.00;;
55368;SDS011;41247;49.736;8.752;2023-05-10T19:48:21;6.50;;;1.08;;
55368;SDS011;41247;49.736;8.752;2023-05-10T19:52:02;2.25;;;0.70;;
55368;SDS011;41247;49.736;8.752;2023-05-10T19:55:44;6.60;;;1.20;;
55368;SDS011;41247;49.736;8.752;2023-05-10T19:59:25;6.30;;;0.90;;
55368;SDS011;41247;49.736;8.752;2023-05-10T20:03:05;2.33;;;1.00;;
55368;SDS011;41247;49.736;8.752;2023-05-10T20:06:46;5.47;;;0.90;;
55368;SDS011;41247;49.736;8.752;2023-05-10T20:10:26;2.15;;;1.00;;
55368;SDS011;41247;49.736;8.752;2023-05-10T20:14:07;1.65;;;0.80;;
55368;SDS011;41247;49.736;8.752;2023-05-10T20:17:48;1.10;;;1.00;;
55368;SDS011;41247;49.736;8.752;2023-05-10T20:21:30;2.45;;;1.00;;
55368;SDS011;41247;49.736;8.752;2023-05-10T20:25:11;3.80;;;0.93;;
55368;SDS011;41247;49.736;8.752;2023-05-10T20:28:52;1.05;;;0.70;;
55368;SDS011;41247;49.736;8.752;2023-05-10T20:32:33;2.67;;;1.10;;
55368;SDS011;41247;49.736;8.752;2023-05-10T20:36:14;3.15;;;0.90;;
55368;SDS011;41247;49.736;8.752;2023-05-10T20:39:54;1.90;;;0.73;;
55368;SDS011;41247;49.736;8.752;2023-05-10T20:43:35;3.13;;;0.80;;
55368;SDS011;41247;49.736;8.752;2023-05-10T20:47:16;1.65;;;0.73;;
55368;SDS011;41247;49.736;8.752;2023-05-10T20:50:56;3.15;;;0.60;;
55368;SDS011;41247;49.736;8.752;2023-05-10T20:54:37;2.15;;;0.70;;
55368;SDS011;41247;49.736;8.752;2023-05-10T20:58:18;3.20;;;0.80;;
55368;SDS011;41247;49.736;8.752;2023-05-10T21:01:59;2.17;;;0.93;;
55368;SDS011;41247;49.736;8.752;2023-05-10T21:05:39;2.17;;;0.85;;
55368;SDS011;41247;49.736;8.752;2023-05-10T21:09:20;14.38;;;1.00;;
55368;SDS011;41247;49.736;8.752;2023-05-10T21:13:00;2.13;;;0.65;;
55368;SDS011;41247;49.736;8.752;2023-05-10T21:16:41;3.80;;;0.90;;
55368;SDS011;41247;49.736;8.752;2023-05-10T21:20:22;4.68;;;0.80;;
55368;SDS011;41247;49.736;8.752;2023-05-10T21:24:02;4.95;;;0.98;;
55368;SDS011;41247;49.736;8.752;2023-05-10T21:27:43;4.88;;;0.90;;
55368;SDS011;41247;49.736;8.752;2023-05-10T21:31:24;3.25;;;0.80;;
55368;SDS011;41247;49.736;8.752;2023-05-10T21:35:04;1.00;;;0.80;;
55368;SDS011;41247;49.736;8.752;2023-05-10T21:38:46;3.35;;;0.82;;
55368;SDS011;41247;49.736;8.752;2023-05-10T21:42:26;0.63;;;0.60;;
55368;SDS011;41247;49.736;8.752;2023-05-10T21:46:07;5.47;;;0.70;;
55368;SDS011;41247;49.736;8.752;2023-05-10T21:49:48;1.35;;;0.80;;
55368;SDS011;41247;49.736;8.752;2023-05-10T21:53:28;1.73;;;0.60;;
55368;SDS011;41247;49.736;8.752;2023-05-10T21:57:09;3.55;;;0.70;;
55368;SDS011;41247;49.736;8.752;2023-05-10T22:00:50;3.25;;;1.10;;
55368;SDS011;41247;49.736;8.752;2023-05-10T22:04:30;0.80;;;0.57;;
55368;SDS011;41247;49.736;8.752;2023-05-10T22:08:11;4.20;;;0.65;;
55368;SDS011;41247;49.736;8.752;2023-05-10T22:11:52;1.63;;;0.73;;
55368;SDS011;41247;49.736;8.752;2023-05-10T22:15:32;1.73;;;0.70;;
55368;SDS011;41247;49.736;8.752;2023-05-10T22:19:13;4.50;;;0.70;;
55368;SDS011;41247;49.736;8.752;2023-05-10T22:22:53;1.25;;;0.70;;
55368;SDS011;41247;49.736;8.752;2023-05-10T22:26:34;1.70;;;0.60;;